sensor_id;sensor_type;location;lat;lon;timestamp;pressure;altitude;pressure_sealevel;temperature;humidity
43257;BME280;28860;43.212;27.934;2023-08-06T00:00:24;99892.16;;;31.59;53.51
43257;BME280;28860;43.212;27.934;2023-08-06T00:02:50;99888.28;;;31.60;53.41
43257;BME280;28860;43.212;27.934;2023-08-06T00:05:18;99884.94;;;31.58;53.29
43257;BME280;28860;43.212;27.934;2023-08-06T00:07:50;99844.31;;;31.46;53.31
43257;BME280;28860;43.212;27.934;2023-08-06T00:10:16;99859.09;;;31.52;53.06
43257;BME280;28860;43.212;27.934;2023-08-06T00:12:42;99857.13;;;31.53;52.86
43257;BME280;28860;43.212;27.934;2023-08-06T00:15:11;99851.59;;;31.53;52.76
43257;BME280;28860;43.212;27.934;2023-08-06T00:17:39;99843.28;;;31.53;52.92
43257;BME280;28860;43.212;27.934;2023-08-06T00:20:05;99848.59;;;31.54;52.91
43257;BME280;28860;43.212;27.934;2023-08-06T00:22:38;99841.38;;;31.53;52.90
43257;BME280;28860;43.212;27.934;2023-08-06T00:25:04;99844.31;;;31.46;52.77
43257;BME280;28860;43.212;27.934;2023-08-06T00:27:36;99851.53;;;31.47;52.81
43257;BME280;28860;43.212;27.934;2023-08-06T00:30:02;99842.13;;;31.48;52.90
43257;BME280;28860;43.212;27.934;2023-08-06T00:32:28;99827.00;;;31.39;52.69
43257;BME280;28860;43.212;27.934;2023-08-06T00:34:53;99820.38;;;31.40;52.92
43257;BME280;28860;43.212;27.934;2023-08-06T00:37:19;99828.22;;;31.43;52.99
43257;BME280;28860;43.212;27.934;2023-08-06T00:39:45;99815.94;;;31.39;53.15
43257;BME280;28860;43.212;27.934;2023-08-06T00:42:11;99826.03;;;31.45;53.31
43257;BME280;28860;43.212;27.934;2023-08-06T00:44:37;99822.09;;;31.41;52.78
43257;BME280;28860;43.212;27.934;2023-08-06T00:47:04;99820.31;;;31.35;53.42
43257;BME280;28860;43.212;27.934;2023-08-06T00:49:33;99824.41;;;31.32;52.85
43257;BME280;28860;43.212;27.934;2023-08-06T00:51:59;99833.41;;;31.40;52.89
43257;BME280;28860;43.212;27.934;2023-08-06T00:54:30;99827.53;;;31.36;53.12
43257;BME280;28860;43.212;27.934;2023-08-06T00:56:59;99837.59;;;31.42;52.97
43257;BME280;28860;43.212;27.934;2023-08-06T00:59:26;99841.47;;;31.41;52.83
43257;BME280;28860;43.212;27.934;2023-08-06T01:01:52;99821.16;;;31.36;52.73
43257;BME280;28860;43.212;27.934;2023-08-06T01:04:20;99826.78;;;31.41;52.87
43257;BME280;28860;43.212;27.934;2023-08-06T01:07:01;99826.25;;;31.44;52.50
43257;BME280;28860;43.212;27.934;2023-08-06T01:09:50;99819.16;;;31.31;52.69
43257;BME280;28860;43.212;27.934;2023-08-06T01:15:41;99816.97;;;31.33;52.67
43257;BME280;28860;43.212;27.934;2023-08-06T01:17:58;99819.16;;;31.31;53.07
43257;BME280;28860;43.212;27.934;2023-08-06T01:20:29;99807.03;;;31.37;52.83
43257;BME280;28860;43.212;27.934;2023-08-06T01:22:54;99802.69;;;31.41;52.87
43257;BME280;28860;43.212;27.934;2023-08-06T01:25:20;99804.38;;;31.42;52.84
43257;BME280;28860;43.212;27.934;2023-08-06T01:27:49;99789.44;;;31.43;52.85
43257;BME280;28860;43.212;27.934;2023-08-06T01:30:25;99783.88;;;31.43;53.14
43257;BME280;28860;43.212;27.934;2023-08-06T01:32:58;99780.84;;;31.45;52.94
43257;BME280;28860;43.212;27.934;2023-08-06T01:35:25;99776.16;;;31.45;53.25
43257;BME280;28860;43.212;27.934;2023-08-06T01:37:52;99771.63;;;31.39;53.15
43257;BME280;28860;43.212;27.934;2023-08-06T01:40:22;99770.28;;;31.42;53.48
43257;BME280;28860;43.212;27.934;2023-08-06T01:42:52;99775.59;;;31.43;53.61
43257;BME280;28860;43.212;27.934;2023-08-06T01:45:20;99761.72;;;31.43;53.59
43257;BME280;28860;43.212;27.934;2023-08-06T01:47:46;99754.00;;;31.45;53.33
43257;BME280;28860;43.212;27.934;2023-08-06T01:50:11;99752.84;;;31.41;53.77
43257;BME280;28860;43.212;27.934;2023-08-06T01:52:37;99739.41;;;31.33;53.68
43257;BME280;28860;43.212;27.934;2023-08-06T01:55:05;99750.56;;;31.38;53.19
43257;BME280;28860;43.212;27.934;2023-08-06T01:57:31;99740.50;;;31.32;53.17
43257;BME280;28860;43.212;27.934;2023-08-06T01:59:56;99747.66;;;31.28;53.64
43257;BME280;28860;43.212;27.934;2023-08-06T02:02:22;99751.59;;;31.32;53.68
43257;BME280;28860;43.212;27.934;2023-08-06T02:04:47;99745.13;;;31.26;53.56
43257;BME280;28860;43.212;27.934;2023-08-06T02:07:13;99742.03;;;31.23;53.66
43257;BME280;28860;43.212;27.934;2023-08-06T02:09:38;99741.78;;;31.24;53.43
43257;BME280;28860;43.212;27.934;2023-08-06T02:12:08;99731.63;;;31.13;53.86
43257;BME280;28860;43.212;27.934;2023-08-06T02:14:34;99717.44;;;31.09;53.39
43257;BME280;28860;43.212;27.934;2023-08-06T02:17:01;99737.50;;;31.16;53.59
43257;BME280;28860;43.212;27.934;2023-08-06T02:19:27;99730.78;;;31.12;53.79
43257;BME280;28860;43.212;27.934;2023-08-06T02:21:53;99736.41;;;31.17;53.79
43257;BME280;28860;43.212;27.934;2023-08-06T02:24:18;99723.81;;;31.10;53.64
43257;BME280;28860;43.212;27.934;2023-08-06T02:26:44;99721.63;;;31.12;53.65
43257;BME280;28860;43.212;27.934;2023-08-06T02:29:09;99721.63;;;31.12;53.86
43257;BME280;28860;43.212;27.934;2023-08-06T02:31:35;99717.53;;;31.14;53.73
43257;BME280;28860;43.212;27.934;2023-08-06T02:34:01;99711.06;;;31.09;53.70
43257;BME280;28860;43.212;27.934;2023-08-06T02:36:26;99699.16;;;31.08;53.90
43257;BME280;28860;43.212;27.934;2023-08-06T02:38:57;99698.38;;;31.13;53.76
43257;BME280;28860;43.212;27.934;2023-08-06T02:41:23;99690.78;;;31.03;53.55
43257;BME280;28860;43.212;27.934;2023-08-06T02:43:52;99700.81;;;31.09;53.67
43257;BME280;28860;43.212;27.934;2023-08-06T02:46:17;99696.97;;;31.10;53.51
43257;BME280;28860;43.212;27.934;2023-08-06T02:48:43;99712.22;;;31.13;53.65
43257;BME280;28860;43.212;27.934;2023-08-06T02:51:09;99711.41;;;31.12;53.70
43257;BME280;28860;43.212;27.934;2023-08-06T02:53:34;99712.50;;;31.11;53.40
43257;BME280;28860;43.212;27.934;2023-08-06T02:56:00;99708.53;;;31.07;53.43
43257;BME280;28860;43.212;27.934;2023-08-06T02:58:25;99711.91;;;31.09;53.67
43257;BME280;28860;43.212;27.934;2023-08-06T03:01:05;99714.41;;;31.11;53.66
43257;BME280;28860;43.212;27.934;2023-08-06T03:03:32;99717.69;;;31.08;53.65
43257;BME280;28860;43.212;27.934;2023-08-06T03:06:01;99728.03;;;31.12;53.49
43257;BME280;28860;43.212;27.934;2023-08-06T03:08:29;99739.09;;;31.12;53.46
43257;BME280;28860;43.212;27.934;2023-08-06T03:10:55;99736.81;;;31.09;53.14
43257;BME280;28860;43.212;27.934;2023-08-06T03:13:20;99730.53;;;31.14;53.09
43257;BME280;28860;43.212;27.934;2023-08-06T03:15:56;99744.13;;;31.15;53.19
43257;BME280;28860;43.212;27.934;2023-08-06T03:18:21;99738.59;;;31.15;53.00
43257;BME280;28860;43.212;27.934;2023-08-06T03:20:48;99745.78;;;31.16;52.80
43257;BME280;28860;43.212;27.934;2023-08-06T03:23:13;99749.16;;;31.18;52.86
43257;BME280;28860;43.212;27.934;2023-08-06T03:25:39;99746.13;;;31.20;52.50
43257;BME280;28860;43.212;27.934;2023-08-06T03:28:07;99749.72;;;31.20;52.51
43257;BME280;28860;43.212;27.934;2023-08-06T03:30:35;99746.97;;;31.20;52.51
43257;BME280;28860;43.212;27.934;2023-08-06T03:33:00;99742.31;;;31.21;52.67
43257;BME280;28860;43.212;27.934;2023-08-06T03:35:29;99747.66;;;31.28;52.56
43257;BME280;28860;43.212;27.934;2023-08-06T03:37:57;99747.66;;;31.28;52.67
43257;BME280;28860;43.212;27.934;2023-08-06T03:40:23;99735.66;;;31.22;52.92
43257;BME280;28860;43.212;27.934;2023-08-06T03:42:48;99732.03;;;31.22;53.44
43257;BME280;28860;43.212;27.934;2023-08-06T03:45:14;99719.97;;;31.11;53.38
43257;BME280;28860;43.212;27.934;2023-08-06T03:47:40;99757.66;;;31.29;53.38
43257;BME280;28860;43.212;27.934;2023-08-06T03:50:05;99749.25;;;31.24;53.39
43257;BME280;28860;43.212;27.934;2023-08-06T03:52:34;99766.94;;;31.23;53.23
43257;BME280;28860;43.212;27.934;2023-08-06T03:55:00;99751.00;;;30.96;54.08
43257;BME280;28860;43.212;27.934;2023-08-06T03:57:25;99751.00;;;30.96;54.04
43257;BME280;28860;43.212;27.934;2023-08-06T03:59:51;99742.50;;;31.02;53.35
43257;BME280;28860;43.212;27.934;2023-08-06T04:02:19;99742.63;;;31.08;53.37
43257;BME280;28860;43.212;27.934;2023-08-06T04:04:50;99739.16;;;31.00;53.61
43257;BME280;28860;43.212;27.934;2023-08-06T04:07:23;99742.03;;;31.05;53.55
43257;BME280;28860;43.212;27.934;2023-08-06T04:09:57;99737.91;;;31.08;53.20
43257;BME280;28860;43.212;27.934;2023-08-06T04:12:23;99738.59;;;31.15;53.09
43257;BME280;28860;43.212;27.934;2023-08-06T04:14:52;99723.88;;;31.15;53.45
43257;BME280;28860;43.212;27.934;2023-08-06T04:17:21;99726.13;;;31.18;53.37
43257;BME280;28860;43.212;27.934;2023-08-06T04:19:51;99720.31;;;31.14;53.58
43257;BME280;28860;43.212;27.934;2023-08-06T04:22:17;99729.28;;;31.22;53.36
43257;BME280;28860;43.212;27.934;2023-08-06T04:24:43;99724.81;;;31.20;53.18
43257;BME280;28860;43.212;27.934;2023-08-06T04:27:09;99719.78;;;31.17;53.36
43257;BME280;28860;43.212;27.934;2023-08-06T04:29:35;99731.06;;;31.28;53.16
43257;BME280;28860;43.212;27.934;2023-08-06T04:32:01;99728.75;;;31.25;53.04
43257;BME280;28860;43.212;27.934;2023-08-06T04:34:27;99706.03;;;31.23;53.13
43257;BME280;28860;43.212;27.934;2023-08-06T04:36:53;99708.63;;;31.29;53.00
43257;BME280;28860;43.212;27.934;2023-08-06T04:39:18;99713.41;;;31.34;52.95
43257;BME280;28860;43.212;27.934;2023-08-06T04:41:44;99719.50;;;31.36;53.09
43257;BME280;28860;43.212;27.934;2023-08-06T04:44:12;99710.06;;;31.32;53.27
43257;BME280;28860;43.212;27.934;2023-08-06T04:46:42;99716.75;;;31.36;52.93
43257;BME280;28860;43.212;27.934;2023-08-06T04:49:07;99705.66;;;31.36;53.09
43257;BME280;28860;43.212;27.934;2023-08-06T04:51:33;99705.16;;;31.39;53.11
43257;BME280;28860;43.212;27.934;2023-08-06T04:54:01;99697.19;;;31.43;53.12
43257;BME280;28860;43.212;27.934;2023-08-06T04:56:27;99681.84;;;31.35;53.00
43257;BME280;28860;43.212;27.934;2023-08-06T04:58:53;99679.13;;;31.40;53.23
43257;BME280;28860;43.212;27.934;2023-08-06T05:01:18;99668.50;;;31.32;53.20
43257;BME280;28860;43.212;27.934;2023-08-06T05:03:47;99686.88;;;31.38;53.51
43257;BME280;28860;43.212;27.934;2023-08-06T05:06:12;99675.28;;;31.41;53.21
43257;BME280;28860;43.212;27.934;2023-08-06T05:08:38;99685.91;;;31.49;53.57
43257;BME280;28860;43.212;27.934;2023-08-06T05:11:04;99682.91;;;31.51;53.23
43257;BME280;28860;43.212;27.934;2023-08-06T05:13:29;99674.25;;;31.47;53.34
43257;BME280;28860;43.212;27.934;2023-08-06T05:15:55;99672.63;;;31.52;53.33
43257;BME280;28860;43.212;27.934;2023-08-06T05:18:20;99668.72;;;31.47;53.58
43257;BME280;28860;43.212;27.934;2023-08-06T05:20:46;99662.13;;;31.54;53.22
43257;BME280;28860;43.212;27.934;2023-08-06T05:23:11;99676.59;;;31.56;53.24
43257;BME280;28860;43.212;27.934;2023-08-06T05:25:40;99657.44;;;31.54;53.18
43257;BME280;28860;43.212;27.934;2023-08-06T05:28:10;99664.03;;;31.48;53.22
43257;BME280;28860;43.212;27.934;2023-08-06T05:30:40;99674.41;;;31.58;53.11
43257;BME280;28860;43.212;27.934;2023-08-06T05:33:06;99675.53;;;31.62;53.21
43257;BME280;28860;43.212;27.934;2023-08-06T05:35:31;99677.06;;;31.53;53.44
43257;BME280;28860;43.212;27.934;2023-08-06T05:37:57;99665.94;;;31.47;53.77
43257;BME280;28860;43.212;27.934;2023-08-06T05:40:22;99669.34;;;31.55;53.61
43257;BME280;28860;43.212;27.934;2023-08-06T05:42:51;99674.06;;;31.54;53.46
43257;BME280;28860;43.212;27.934;2023-08-06T05:45:19;99672.59;;;31.46;54.25
43257;BME280;28860;43.212;27.934;2023-08-06T05:47:44;99643.66;;;31.37;53.78
43257;BME280;28860;43.212;27.934;2023-08-06T05:50:10;99646.56;;;31.47;53.44
43257;BME280;28860;43.212;27.934;2023-08-06T05:52:38;99655.97;;;31.46;53.61
43257;BME280;28860;43.212;27.934;2023-08-06T05:55:04;99669.09;;;31.56;53.37
43257;BME280;28860;43.212;27.934;2023-08-06T05:57:30;99665.22;;;31.57;53.27
43257;BME280;28860;43.212;27.934;2023-08-06T05:59:55;99653.91;;;31.59;53.23
43257;BME280;28860;43.212;27.934;2023-08-06T06:02:23;99652.28;;;31.63;53.35
43257;BME280;28860;43.212;27.934;2023-08-06T06:04:49;99639.78;;;31.60;53.10
43257;BME280;28860;43.212;27.934;2023-08-06T06:07:17;99660.63;;;31.68;53.17
43257;BME280;28860;43.212;27.934;2023-08-06T06:09:43;99653.91;;;31.59;53.27
43257;BME280;28860;43.212;27.934;2023-08-06T06:12:08;99634.63;;;31.47;53.34
43257;BME280;28860;43.212;27.934;2023-08-06T06:14:34;99655.56;;;31.60;52.94
43257;BME280;28860;43.212;27.934;2023-08-06T06:16:59;99656.16;;;31.62;53.03
43257;BME280;28860;43.212;27.934;2023-08-06T06:19:26;99670.63;;;31.69;52.95
43257;BME280;28860;43.212;27.934;2023-08-06T06:21:51;99660.72;;;31.73;53.14
43257;BME280;28860;43.212;27.934;2023-08-06T06:24:19;99657.69;;;31.75;52.48
43257;BME280;28860;43.212;27.934;2023-08-06T06:26:45;99668.59;;;31.82;52.40
43257;BME280;28860;43.212;27.934;2023-08-06T06:29:10;99642.91;;;31.69;52.69
43257;BME280;28860;43.212;27.934;2023-08-06T06:31:36;99656.31;;;31.77;52.53
43257;BME280;28860;43.212;27.934;2023-08-06T06:34:01;99655.63;;;31.87;52.41
43257;BME280;28860;43.212;27.934;2023-08-06T06:36:27;99658.16;;;31.89;52.60
43257;BME280;28860;43.212;27.934;2023-08-06T06:38:52;99665.38;;;31.90;52.05
43257;BME280;28860;43.212;27.934;2023-08-06T06:41:21;99667.56;;;31.88;52.52
43257;BME280;28860;43.212;27.934;2023-08-06T06:43:46;99668.66;;;31.87;52.75
43257;BME280;28860;43.212;27.934;2023-08-06T06:46:12;99668.38;;;31.88;52.53
43257;BME280;28860;43.212;27.934;2023-08-06T06:48:38;99658.94;;;31.84;52.09
43257;BME280;28860;43.212;27.934;2023-08-06T06:51:03;99661.13;;;31.82;52.15
43257;BME280;28860;43.212;27.934;2023-08-06T06:53:29;99662.03;;;31.88;52.16
43257;BME280;28860;43.212;27.934;2023-08-06T06:55:55;99664.72;;;31.83;52.40
43257;BME280;28860;43.212;27.934;2023-08-06T06:58:21;99668.59;;;31.82;52.05
43257;BME280;28860;43.212;27.934;2023-08-06T07:00:47;99663.03;;;31.82;51.96
43257;BME280;28860;43.212;27.934;2023-08-06T07:03:16;99662.03;;;31.88;52.11
43257;BME280;28860;43.212;27.934;2023-08-06T07:05:43;99649.28;;;31.87;52.26
43257;BME280;28860;43.212;27.934;2023-08-06T07:08:12;99650.03;;;31.82;52.15
43257;BME280;28860;43.212;27.934;2023-08-06T07:10:41;99653.75;;;31.93;52.23
43257;BME280;28860;43.212;27.934;2023-08-06T07:13:09;99665.97;;;31.97;51.85
43257;BME280;28860;43.212;27.934;2023-08-06T07:15:34;99671.03;;;32.00;51.56
43257;BME280;28860;43.212;27.934;2023-08-06T07:18:01;99652.59;;;31.89;52.07
43257;BME280;28860;43.212;27.934;2023-08-06T07:20:26;99665.97;;;31.97;52.05
43257;BME280;28860;43.212;27.934;2023-08-06T07:22:54;99669.59;;;31.98;51.96
43257;BME280;28860;43.212;27.934;2023-08-06T07:25:20;99664.63;;;32.00;52.00
43257;BME280;28860;43.212;27.934;2023-08-06T07:27:47;99658.25;;;31.99;52.06
43257;BME280;28860;43.212;27.934;2023-08-06T07:30:13;99647.69;;;31.96;52.21
43257;BME280;28860;43.212;27.934;2023-08-06T07:32:38;99658.25;;;31.99;51.94
43257;BME280;28860;43.212;27.934;2023-08-06T07:35:07;99664.31;;;31.96;52.18
43257;BME280;28860;43.212;27.934;2023-08-06T07:37:38;99658.63;;;32.08;51.98
43257;BME280;28860;43.212;27.934;2023-08-06T07:40:04;99659.41;;;32.03;52.16
43257;BME280;28860;43.212;27.934;2023-08-06T07:42:30;99658.88;;;32.07;52.32
43257;BME280;28860;43.212;27.934;2023-08-06T07:44:57;99648.84;;;32.00;52.44
43257;BME280;28860;43.212;27.934;2023-08-06T07:47:23;99669.75;;;32.13;52.15
43257;BME280;28860;43.212;27.934;2023-08-06T07:49:49;99678.88;;;32.09;52.67
43257;BME280;28860;43.212;27.934;2023-08-06T07:52:14;99658.25;;;31.99;52.37
43257;BME280;28860;43.212;27.934;2023-08-06T07:54:40;99681.50;;;31.98;52.42
43257;BME280;28860;43.212;27.934;2023-08-06T07:57:06;99669.84;;;31.96;52.29
43257;BME280;28860;43.212;27.934;2023-08-06T07:59:31;99668.84;;;32.02;52.13
43257;BME280;28860;43.212;27.934;2023-08-06T08:01:57;99672.78;;;32.12;52.18
43257;BME280;28860;43.212;27.934;2023-08-06T08:04:23;99663.34;;;32.08;51.88
43257;BME280;28860;43.212;27.934;2023-08-06T08:06:49;99675.53;;;32.07;52.45
43257;BME280;28860;43.212;27.934;2023-08-06T08:09:17;99676.09;;;32.09;52.25
43257;BME280;28860;43.212;27.934;2023-08-06T08:11:43;99672.56;;;32.18;52.30
43257;BME280;28860;43.212;27.934;2023-08-06T08:14:09;99675.72;;;32.27;52.02
43257;BME280;28860;43.212;27.934;2023-08-06T08:16:34;99665.16;;;32.24;51.67
43257;BME280;28860;43.212;27.934;2023-08-06T08:19:00;99681.25;;;32.27;51.43
43257;BME280;28860;43.212;27.934;2023-08-06T08:21:26;99690.47;;;32.33;50.97
43257;BME280;28860;43.212;27.934;2023-08-06T08:23:51;99679.72;;;32.37;50.81
43257;BME280;28860;43.212;27.934;2023-08-06T08:26:17;99682.50;;;32.37;51.00
43257;BME280;28860;43.212;27.934;2023-08-06T08:28:43;99655.19;;;32.28;51.23
43257;BME280;28860;43.212;27.934;2023-08-06T08:31:09;99677.50;;;32.39;51.24
43257;BME280;28860;43.212;27.934;2023-08-06T08:33:36;99672.50;;;32.36;50.90
43257;BME280;28860;43.212;27.934;2023-08-06T08:36:02;99661.97;;;32.38;51.25
43257;BME280;28860;43.212;27.934;2023-08-06T08:38:28;99659.47;;;32.36;51.23
43257;BME280;28860;43.212;27.934;2023-08-06T08:40:58;99659.25;;;32.43;51.27
43257;BME280;28860;43.212;27.934;2023-08-06T08:43:24;99642.03;;;32.41;50.90
43257;BME280;28860;43.212;27.934;2023-08-06T08:45:54;99646.00;;;32.50;50.79
43257;BME280;28860;43.212;27.934;2023-08-06T08:48:21;99634.06;;;32.50;51.17
43257;BME280;28860;43.212;27.934;2023-08-06T08:50:49;99622.34;;;32.42;51.33
43257;BME280;28860;43.212;27.934;2023-08-06T08:53:16;99627.72;;;32.54;51.17
43257;BME280;28860;43.212;27.934;2023-08-06T08:55:47;99637.78;;;32.66;50.77
43257;BME280;28860;43.212;27.934;2023-08-06T08:58:14;99638.09;;;32.69;50.68
43257;BME280;28860;43.212;27.934;2023-08-06T09:00:42;99644.47;;;32.70;50.38
43257;BME280;28860;43.212;27.934;2023-08-06T09:03:08;99642.72;;;32.58;51.14
43257;BME280;28860;43.212;27.934;2023-08-06T09:05:34;99645.00;;;32.67;51.21
43257;BME280;28860;43.212;27.934;2023-08-06T09:08:04;99644.19;;;32.66;51.28
43257;BME280;28860;43.212;27.934;2023-08-06T09:10:31;99638.34;;;32.63;51.28
43257;BME280;28860;43.212;27.934;2023-08-06T09:12:59;99647.47;;;32.63;51.25
43257;BME280;28860;43.212;27.934;2023-08-06T09:15:27;99636.75;;;32.77;50.80
43257;BME280;28860;43.212;27.934;2023-08-06T09:17:54;99639.56;;;32.82;50.56
43257;BME280;28860;43.212;27.934;2023-08-06T09:20:23;99636.25;;;32.85;50.75
43257;BME280;28860;43.212;27.934;2023-08-06T09:22:52;99641.81;;;32.85;50.32
43257;BME280;28860;43.212;27.934;2023-08-06T09:25:25;99614.69;;;32.93;50.23
43257;BME280;28860;43.212;27.934;2023-08-06T09:27:51;99603.59;;;32.93;50.23
43257;BME280;28860;43.212;27.934;2023-08-06T09:30:35;99604.16;;;33.00;49.93
43257;BME280;28860;43.212;27.934;2023-08-06T09:33:01;99601.44;;;33.05;49.97
43257;BME280;28860;43.212;27.934;2023-08-06T09:35:31;99594.91;;;32.84;50.23
43257;BME280;28860;43.212;27.934;2023-08-06T09:38:07;99597.25;;;33.02;50.03
43257;BME280;28860;43.212;27.934;2023-08-06T09:40:34;99586.16;;;33.08;49.48
43257;BME280;28860;43.212;27.934;2023-08-06T09:42:59;99599.28;;;33.17;49.27
43257;BME280;28860;43.212;27.934;2023-08-06T09:45:33;99599.28;;;33.23;49.29
43257;BME280;28860;43.212;27.934;2023-08-06T09:48:00;99593.19;;;33.21;49.27
43257;BME280;28860;43.212;27.934;2023-08-06T09:50:29;99593.75;;;33.28;49.07
43257;BME280;28860;43.212;27.934;2023-08-06T09:52:59;99591.81;;;33.34;48.74
43257;BME280;28860;43.212;27.934;2023-08-06T09:55:25;99585.69;;;33.26;49.10
43257;BME280;28860;43.212;27.934;2023-08-06T09:57:54;99593.78;;;33.33;49.09
43257;BME280;28860;43.212;27.934;2023-08-06T10:00:21;99598.28;;;33.44;49.13
43257;BME280;28860;43.212;27.934;2023-08-06T10:02:47;99584.94;;;33.47;49.16
43257;BME280;28860;43.212;27.934;2023-08-06T10:05:14;99577.47;;;33.52;49.09
43257;BME280;28860;43.212;27.934;2023-08-06T10:07:42;99579.97;;;33.54;48.62
43257;BME280;28860;43.212;27.934;2023-08-06T10:10:09;99580.00;;;33.64;48.95
43257;BME280;28860;43.212;27.934;2023-08-06T10:12:50;99580.53;;;33.56;48.77
43257;BME280;28860;43.212;27.934;2023-08-06T10:15:24;99583.91;;;33.63;48.55
43257;BME280;28860;43.212;27.934;2023-08-06T10:17:54;99583.34;;;33.71;47.98
43257;BME280;28860;43.212;27.934;2023-08-06T10:20:27;99565.81;;;33.66;48.12
43257;BME280;28860;43.212;27.934;2023-08-06T10:25:30;99551.44;;;33.84;47.89
43257;BME280;28860;43.212;27.934;2023-08-06T10:27:56;99546.13;;;33.88;48.08
43257;BME280;28860;43.212;27.934;2023-08-06T10:30:30;99553.06;;;33.96;47.80
43257;BME280;28860;43.212;27.934;2023-08-06T10:33:06;99548.38;;;33.96;47.79
43257;BME280;28860;43.212;27.934;2023-08-06T10:35:48;99555.63;;;33.97;47.78
43257;BME280;28860;43.212;27.934;2023-08-06T10:38:22;99540.84;;;33.92;47.73
43257;BME280;28860;43.212;27.934;2023-08-06T10:43:33;99537.28;;;34.07;47.37
43257;BME280;28860;43.212;27.934;2023-08-06T10:46:03;99533.09;;;34.14;47.11
43257;BME280;28860;43.212;27.934;2023-08-06T10:48:39;99533.34;;;34.18;46.89
43257;BME280;28860;43.212;27.934;2023-08-06T10:51:10;99535.59;;;34.26;46.71
43257;BME280;28860;43.212;27.934;2023-08-06T10:53:37;99535.59;;;34.37;46.49
43257;BME280;28860;43.212;27.934;2023-08-06T10:56:18;99535.00;;;34.45;46.52
43257;BME280;28860;43.212;27.934;2023-08-06T10:58:45;99521.69;;;34.52;45.92
43257;BME280;28860;43.212;27.934;2023-08-06T11:01:11;99523.34;;;34.53;46.02
43257;BME280;28860;43.212;27.934;2023-08-06T11:03:38;99529.97;;;34.63;46.15
43257;BME280;28860;43.212;27.934;2023-08-06T11:06:06;99520.50;;;34.69;46.33
43257;BME280;28860;43.212;27.934;2023-08-06T11:08:37;99523.25;;;34.79;46.58
43257;BME280;28860;43.212;27.934;2023-08-06T11:11:15;99529.34;;;34.86;45.61
43257;BME280;28860;43.212;27.934;2023-08-06T11:13:44;99529.91;;;34.89;45.59
43257;BME280;28860;43.212;27.934;2023-08-06T11:16:12;99528.50;;;34.91;45.70
43257;BME280;28860;43.212;27.934;2023-08-06T11:18:40;99523.22;;;34.95;45.55
43257;BME280;28860;43.212;27.934;2023-08-06T11:21:08;99525.41;;;35.03;45.70
43257;BME280;28860;43.212;27.934;2023-08-06T11:23:34;99514.81;;;35.10;45.35
43257;BME280;28860;43.212;27.934;2023-08-06T11:26:00;99510.38;;;35.04;44.92
43257;BME280;28860;43.212;27.934;2023-08-06T11:28:26;99518.72;;;34.99;45.33
43257;BME280;28860;43.212;27.934;2023-08-06T11:30:52;99512.63;;;34.92;45.32
43257;BME280;28860;43.212;27.934;2023-08-06T11:33:22;99509.25;;;35.00;45.69
43257;BME280;28860;43.212;27.934;2023-08-06T11:35:51;99504.53;;;35.06;45.12
43257;BME280;28860;43.212;27.934;2023-08-06T11:38:17;99485.84;;;35.06;45.47
43257;BME280;28860;43.212;27.934;2023-08-06T11:40:47;99458.59;;;35.03;45.32
43257;BME280;28860;43.212;27.934;2023-08-06T11:43:17;99442.41;;;35.10;45.38
43257;BME280;28860;43.212;27.934;2023-08-06T11:45:43;99491.38;;;35.17;45.28
43257;BME280;28860;43.212;27.934;2023-08-06T11:48:09;99507.59;;;35.09;45.06
43257;BME280;28860;43.212;27.934;2023-08-06T11:50:38;99509.81;;;35.07;45.18
43257;BME280;28860;43.212;27.934;2023-08-06T11:53:04;99508.41;;;34.99;45.62
43257;BME280;28860;43.212;27.934;2023-08-06T11:55:33;99513.22;;;34.78;46.04
43257;BME280;28860;43.212;27.934;2023-08-06T11:58:03;99514.41;;;34.62;45.79
43257;BME280;28860;43.212;27.934;2023-08-06T12:00:31;99553.09;;;34.48;46.36
43257;BME280;28860;43.212;27.934;2023-08-06T12:02:57;99637.41;;;34.38;46.71
43257;BME280;28860;43.212;27.934;2023-08-06T12:05:28;99623.19;;;34.08;47.51
43257;BME280;28860;43.212;27.934;2023-08-06T12:07:58;99622.88;;;33.94;47.99
43257;BME280;28860;43.212;27.934;2023-08-06T12:10:26;99639.28;;;33.27;49.65
43257;BME280;28860;43.212;27.934;2023-08-06T12:12:52;99651.88;;;32.92;50.83
43257;BME280;28860;43.212;27.934;2023-08-06T12:15:18;99645.97;;;32.45;46.64
43257;BME280;28860;43.212;27.934;2023-08-06T12:17:44;99616.59;;;32.22;43.04
43257;BME280;28860;43.212;27.934;2023-08-06T12:20:10;99610.13;;;32.11;43.97
43257;BME280;28860;43.212;27.934;2023-08-06T12:22:36;99616.69;;;31.77;44.88
43257;BME280;28860;43.212;27.934;2023-08-06T12:25:12;99641.97;;;31.81;45.18
43257;BME280;28860;43.212;27.934;2023-08-06T12:27:40;99639.84;;;31.88;44.93
43257;BME280;28860;43.212;27.934;2023-08-06T12:30:07;99637.81;;;31.56;45.55
43257;BME280;28860;43.212;27.934;2023-08-06T12:32:33;99629.81;;;31.37;46.46
43257;BME280;28860;43.212;27.934;2023-08-06T12:35:01;99597.41;;;31.38;46.53
43257;BME280;28860;43.212;27.934;2023-08-06T12:37:27;99607.44;;;31.22;46.61
43257;BME280;28860;43.212;27.934;2023-08-06T12:39:53;99602.22;;;31.03;47.39
43257;BME280;28860;43.212;27.934;2023-08-06T12:42:21;99611.63;;;30.85;47.92
43257;BME280;28860;43.212;27.934;2023-08-06T12:44:50;99601.06;;;30.82;48.61
43257;BME280;28860;43.212;27.934;2023-08-06T12:47:16;99604.94;;;30.63;48.43
43257;BME280;28860;43.212;27.934;2023-08-06T12:49:42;99611.81;;;30.44;48.51
43257;BME280;28860;43.212;27.934;2023-08-06T12:52:07;99627.06;;;30.00;49.41
43257;BME280;28860;43.212;27.934;2023-08-06T12:54:34;99624.13;;;29.90;49.89
43257;BME280;28860;43.212;27.934;2023-08-06T12:57:03;99621.56;;;29.71;50.40
43257;BME280;28860;43.212;27.934;2023-08-06T12:59:28;99620.59;;;29.94;50.45